Time;durP1;ratioP1;P1;durP2;ratioP2;P2;SDS_P1;SDS_P2;PMS_P1;PMS_P2;Temp;Humidity;BMP_temperature;BMP_pressure;BME280_temperature;BME280_humidity;BME280_pressure;Samples;Min_cycle;Max_cycle;Signal;HPM_P1;HPM_P2
2022/07/01 00:01:37;;;;;;;5.07;1.17;;;;;;;;;;4984602;28;20042;-65
2022/07/01 00:04:03;;;;;;;4.78;1.20;;;;;;;;;;4966299;28;20194;-65
2022/07/01 00:06:30;;;;;;;5.60;1.00;;;;;;;;;;4984143;28;20099;-65
2022/07/01 00:08:56;;;;;;;6.63;0.90;;;;;;;;;;4984993;28;20050;-65
2022/07/01 00:11:22;;;;;;;3.65;1.00;;;;;;;;;;4984240;28;20428;-65
2022/07/01 00:13:48;;;;;;;3.45;0.90;;;;;;;;;;4967251;28;20077;-65
2022/07/01 00:16:15;;;;;;;3.78;1.20;;;;;;;;;;4966896;28;20047;-65
2022/07/01 00:18:41;;;;;;;4.93;1.20;;;;;;;;;;4984157;28;20051;-65
2022/07/01 00:21:07;;;;;;;7.63;1.42;;;;;;;;;;4997296;28;20046;-65
2022/07/01 00:23:33;;;;;;;3.65;1.10;;;;;;;;;;4971382;28;20125;-65
2022/07/01 00:25:59;;;;;;;8.18;1.60;;;;;;;;;;4984563;28;20425;-65
2022/07/01 00:28:26;;;;;;;4.55;1.20;;;;;;;;;;4966749;28;20204;-65
2022/07/01 00:30:52;;;;;;;3.10;1.13;;;;;;;;;;4967990;28;20043;-65
2022/07/01 00:33:19;;;;;;;5.13;1.25;;;;;;;;;;4981060;28;20054;-65
2022/07/01 00:35:45;;;;;;;2.90;1.02;;;;;;;;;;4967338;28;20046;-65
2022/07/01 00:38:12;;;;;;;6.55;0.93;;;;;;;;;;4983887;28;20466;-65
2022/07/01 00:40:38;;;;;;;2.60;1.00;;;;;;;;;;4983518;28;20129;-65
2022/07/01 00:43:04;;;;;;;3.15;1.38;;;;;;;;;;4985757;28;20054;-65
2022/07/01 00:45:30;;;;;;;3.35;1.17;;;;;;;;;;4987364;28;20034;-65
2022/07/01 00:47:57;;;;;;;5.78;1.48;;;;;;;;;;4986970;28;20049;-65
2022/07/01 00:50:23;;;;;;;4.97;1.83;;;;;;;;;;4999735;28;20050;-65
2022/07/01 00:52:50;;;;;;;4.68;1.63;;;;;;;;;;4987833;28;20402;-65
2022/07/01 00:55:16;;;;;;;5.18;1.60;;;;;;;;;;4968218;28;20129;-65
2022/07/01 00:57:43;;;;;;;5.70;1.75;;;;;;;;;;4992087;28;20085;-65
2022/07/01 01:00:13;;;;;;;2.97;1.58;;;;;;;;;;4986834;28;20184;-65
2022/07/01 01:02:39;;;;;;;4.75;1.80;;;;;;;;;;4985935;28;20098;-65
2022/07/01 01:05:06;;;;;;;6.07;1.60;;;;;;;;;;4988650;28;20046;-65
2022/07/01 01:07:32;;;;;;;5.78;2.05;;;;;;;;;;4986239;28;20041;-65
2022/07/01 01:10:00;;;;;;;4.63;1.83;;;;;;;;;;4969559;28;20049;-65
2022/07/01 01:12:27;;;;;;;4.30;1.65;;;;;;;;;;4984528;28;20042;-65
2022/07/01 01:14:53;;;;;;;9.25;2.53;;;;;;;;;;4986165;28;20038;-65
2022/07/01 01:17:21;;;;;;;5.95;1.70;;;;;;;;;;5000118;28;20048;-65
2022/07/01 01:19:48;;;;;;;2.70;1.45;;;;;;;;;;4986592;28;20049;-65
2022/07/01 01:22:15;;;;;;;6.25;1.60;;;;;;;;;;4986961;28;20509;-65
2022/07/01 01:24:42;;;;;;;3.55;1.35;;;;;;;;;;4984504;28;20129;-65
2022/07/01 01:27:08;;;;;;;7.38;1.50;;;;;;;;;;4986345;28;20066;-65
2022/07/01 01:29:36;;;;;;;3.47;1.60;;;;;;;;;;4981654;28;20057;-65
2022/07/01 01:32:02;;;;;;;4.50;2.30;;;;;;;;;;4986752;28;20038;-65
2022/07/01 01:34:29;;;;;;;4.53;1.77;;;;;;;;;;4985851;28;20308;-65
2022/07/01 01:36:55;;;;;;;4.13;2.00;;;;;;;;;;4991756;28;20043;-65
2022/07/01 01:39:21;;;;;;;4.82;1.98;;;;;;;;;;4986330;28;20465;-65
2022/07/01 01:41:47;;;;;;;6.38;2.58;;;;;;;;;;4986723;28;20058;-65
2022/07/01 01:44:14;;;;;;;4.97;2.22;;;;;;;;;;4978503;28;20050;-65
2022/07/01 01:46:40;;;;;;;5.65;2.15;;;;;;;;;;4973726;28;20048;-65
2022/07/01 01:49:06;;;;;;;5.60;2.15;;;;;;;;;;4985997;28;20050;-65
2022/07/01 01:51:33;;;;;;;5.30;2.30;;;;;;;;;;4986071;28;20149;-65
2022/07/01 01:54:00;;;;;;;9.85;3.17;;;;;;;;;;4986908;28;20339;-65
2022/07/01 01:56:26;;;;;;;8.07;3.03;;;;;;;;;;4985973;28;20042;-65
2022/07/01 01:58:52;;;;;;;4.95;3.00;;;;;;;;;;4982912;28;20054;-65
2022/07/01 02:01:19;;;;;;;6.22;3.08;;;;;;;;;;4987254;28;20402;-65
2022/07/01 02:03:46;;;;;;;9.40;2.65;;;;;;;;;;4970288;28;20068;-65
2022/07/01 02:06:13;;;;;;;5.47;3.53;;;;;;;;;;4987241;28;20042;-65
2022/07/01 02:08:40;;;;;;;6.68;3.30;;;;;;;;;;4987097;28;20035;-64
2022/07/01 02:11:06;;;;;;;6.65;3.60;;;;;;;;;;4991098;28;20091;-65
2022/07/01 02:13:33;;;;;;;5.82;3.40;;;;;;;;;;4971501;28;20038;-65
2022/07/01 02:15:59;;;;;;;4.90;3.22;;;;;;;;;;4969584;28;20050;-64
2022/07/01 02:18:25;;;;;;;7.55;3.60;;;;;;;;;;4986072;28;20409;-64
2022/07/01 02:20:52;;;;;;;7.25;3.75;;;;;;;;;;4988798;28;20077;-64
2022/07/01 02:23:18;;;;;;;7.38;3.97;;;;;;;;;;4975932;28;20054;-65
2022/07/01 02:25:46;;;;;;;8.13;4.13;;;;;;;;;;4985982;28;20042;-64
2022/07/01 02:28:12;;;;;;;8.20;4.40;;;;;;;;;;4988769;28;20686;-64
2022/07/01 02:30:38;;;;;;;8.68;4.13;;;;;;;;;;5005220;28;21269;-65
2022/07/01 02:33:06;;;;;;;8.48;3.83;;;;;;;;;;4988235;28;20049;-65
2022/07/01 02:35:34;;;;;;;9.05;4.95;;;;;;;;;;4982393;28;20347;-64
2022/07/01 02:38:00;;;;;;;7.10;3.88;;;;;;;;;;4970113;28;20042;-64
2022/07/01 02:40:27;;;;;;;6.07;3.60;;;;;;;;;;4986374;28;20054;-64
2022/07/01 02:42:53;;;;;;;7.07;3.65;;;;;;;;;;4968659;28;20042;-64
2022/07/01 02:45:19;;;;;;;9.88;4.53;;;;;;;;;;4968273;28;20364;-64
2022/07/01 02:47:45;;;;;;;6.55;3.88;;;;;;;;;;4984662;28;20397;-64
2022/07/01 02:50:12;;;;;;;6.28;3.92;;;;;;;;;;4987349;28;20264;-64
2022/07/01 02:52:39;;;;;;;8.63;3.67;;;;;;;;;;4988129;28;20121;-64
2022/07/01 02:55:07;;;;;;;5.60;3.70;;;;;;;;;;4993367;28;20038;-64
2022/07/01 02:57:33;;;;;;;7.65;4.00;;;;;;;;;;4986155;28;20034;-64
2022/07/01 03:00:00;;;;;;;6.68;3.88;;;;;;;;;;5051996;28;20090;-65
2022/07/01 03:02:26;;;;;;;6.88;4.38;;;;;;;;;;4964802;28;20049;-65
2022/07/01 03:04:53;;;;;;;6.55;4.70;;;;;;;;;;4972047;28;20529;-64
2022/07/01 03:07:21;;;;;;;8.57;4.32;;;;;;;;;;4966728;28;20057;-64
2022/07/01 03:09:48;;;;;;;7.70;4.72;;;;;;;;;;4967025;28;20097;-64
2022/07/01 03:12:28;;;;;;;10.00;4.18;;;;;;;;;;4981764;28;20061;-64
2022/07/01 03:14:56;;;;;;;8.63;4.82;;;;;;;;;;4983518;28;20050;-64
2022/07/01 03:17:22;;;;;;;12.77;4.90;;;;;;;;;;4984743;28;20232;-65
2022/07/01 03:19:49;;;;;;;9.52;4.55;;;;;;;;;;4986196;28;20515;-64
2022/07/01 03:22:15;;;;;;;10.60;5.15;;;;;;;;;;4983531;28;20493;-64
2022/07/01 03:24:41;;;;;;;10.75;4.72;;;;;;;;;;4985270;28;21746;-65
2022/07/01 03:27:08;;;;;;;10.52;5.72;;;;;;;;;;4985770;28;20562;-64
2022/07/01 03:29:34;;;;;;;13.57;5.63;;;;;;;;;;4983585;28;20091;-65
2022/07/01 03:32:00;;;;;;;10.93;5.68;;;;;;;;;;4997109;28;20394;-64
2022/07/01 03:34:26;;;;;;;10.75;5.82;;;;;;;;;;4985103;28;21607;-64
2022/07/01 03:36:53;;;;;;;10.82;6.72;;;;;;;;;;4966841;28;20112;-64
2022/07/01 03:39:19;;;;;;;11.57;7.13;;;;;;;;;;4967897;28;20482;-64
2022/07/01 03:41:45;;;;;;;11.27;7.10;;;;;;;;;;4990030;28;20042;-64
2022/07/01 03:44:11;;;;;;;10.25;6.82;;;;;;;;;;4983328;28;20046;-64
2022/07/01 03:46:37;;;;;;;12.23;6.78;;;;;;;;;;4967442;28;20516;-65
2022/07/01 03:49:05;;;;;;;10.52;6.53;;;;;;;;;;4985152;28;20053;-64
2022/07/01 03:51:31;;;;;;;11.55;7.35;;;;;;;;;;4968484;28;20069;-64
2022/07/01 03:56:42;;;;;;;11.52;6.38;;;;;;;;;;4983852;28;20047;-65
2022/07/01 03:59:08;;;;;;;9.73;6.75;;;;;;;;;;4966578;28;20422;-65
2022/07/01 04:01:34;;;;;;;10.02;7.00;;;;;;;;;;4988147;28;20042;-64
2022/07/01 04:04:01;;;;;;;10.90;7.05;;;;;;;;;;4983268;28;20069;-64
2022/07/01 04:06:27;;;;;;;14.35;6.97;;;;;;;;;;4984266;28;20046;-64
2022/07/01 04:08:53;;;;;;;11.05;5.90;;;;;;;;;;4985205;28;20129;-64
2022/07/01 04:11:20;;;;;;;13.02;6.25;;;;;;;;;;4967043;28;20477;-64
2022/07/01 04:13:50;;;;;;;12.68;7.25;;;;;;;;;;4985489;28;20087;-64
2022/07/01 04:16:17;;;;;;;9.82;6.45;;;;;;;;;;5030908;28;20053;-64
2022/07/01 04:18:44;;;;;;;14.55;7.15;;;;;;;;;;5044365;28;20061;-64
2022/07/01 04:23:56;;;;;;;13.43;6.65;;;;;;;;;;5047815;28;20056;-64
2022/07/01 04:26:24;;;;;;;12.30;6.82;;;;;;;;;;5047889;28;20122;-64
2022/07/01 04:28:51;;;;;;;13.07;6.68;;;;;;;;;;5049825;28;20036;-64
2022/07/01 04:31:17;;;;;;;13.02;6.53;;;;;;;;;;5049387;28;20384;-64
2022/07/01 04:33:44;;;;;;;12.10;5.60;;;;;;;;;;5048569;28;20067;-64
2022/07/01 04:36:10;;;;;;;13.48;5.55;;;;;;;;;;5046738;28;20140;-64
2022/07/01 04:38:36;;;;;;;14.15;5.53;;;;;;;;;;5047210;28;20037;-63
2022/07/01 04:43:47;;;;;;;13.95;5.50;;;;;;;;;;5048314;28;20045;-64
2022/07/01 04:46:13;;;;;;;10.93;5.65;;;;;;;;;;5046949;28;20095;-64
2022/07/01 04:48:40;;;;;;;9.80;4.72;;;;;;;;;;5046879;28;20142;-64
2022/07/01 04:51:06;;;;;;;13.30;4.53;;;;;;;;;;5047951;28;20075;-64
2022/07/01 04:53:33;;;;;;;13.63;3.90;;;;;;;;;;5047396;28;20045;-64
2022/07/01 04:55:59;;;;;;;10.32;3.58;;;;;;;;;;5049563;28;20493;-64
2022/07/01 04:58:25;;;;;;;7.70;3.05;;;;;;;;;;5048968;28;20059;-64
2022/07/01 05:00:52;;;;;;;14.45;3.75;;;;;;;;;;5048292;28;20038;-64
2022/07/01 05:03:18;;;;;;;8.32;2.58;;;;;;;;;;5049367;28;20076;-64
2022/07/01 05:05:45;;;;;;;12.35;3.28;;;;;;;;;;5048705;28;20075;-64
2022/07/01 05:08:11;;;;;;;9.70;2.50;;;;;;;;;;5046780;28;20425;-64
2022/07/01 05:10:37;;;;;;;8.82;2.70;;;;;;;;;;5047178;28;20044;-64
2022/07/01 05:13:04;;;;;;;12.93;3.67;;;;;;;;;;5046903;28;20112;-64
2022/07/01 05:15:30;;;;;;;8.85;2.60;;;;;;;;;;5028359;28;20418;-64
2022/07/01 05:23:26;;;;;;;11.68;2.85;;;;;;;;;;4965948;28;20092;-64
2022/07/01 05:25:53;;;;;;;10.40;3.30;;;;;;;;;;4984167;28;20401;-64
2022/07/01 05:28:19;;;;;;;9.75;3.30;;;;;;;;;;4984122;28;20051;-64
2022/07/01 05:30:45;;;;;;;14.10;3.63;;;;;;;;;;4984790;28;20038;-65
2022/07/01 05:33:11;;;;;;;8.90;3.80;;;;;;;;;;4984455;28;20057;-65
2022/07/01 05:35:37;;;;;;;9.95;3.85;;;;;;;;;;4984828;28;20126;-65
2022/07/01 05:38:04;;;;;;;9.82;4.07;;;;;;;;;;4987312;28;20115;-64
2022/07/01 05:40:30;;;;;;;11.18;4.47;;;;;;;;;;4988317;28;20215;-65
2022/07/01 05:42:56;;;;;;;10.48;5.43;;;;;;;;;;4971000;28;20043;-65
2022/07/01 05:45:22;;;;;;;14.32;6.10;;;;;;;;;;4983570;28;20043;-65
2022/07/01 05:47:48;;;;;;;13.93;6.53;;;;;;;;;;4976601;28;20406;-65
2022/07/01 05:50:15;;;;;;;19.58;7.78;;;;;;;;;;4977977;28;20050;-65
2022/07/01 05:52:43;;;;;;;21.45;8.68;;;;;;;;;;4978577;28;20482;-65
2022/07/01 05:55:10;;;;;;;15.50;8.27;;;;;;;;;;4981831;28;20073;-65
2022/07/01 05:57:37;;;;;;;15.50;8.98;;;;;;;;;;4983912;28;20115;-65
2022/07/01 06:00:04;;;;;;;18.83;8.55;;;;;;;;;;4981665;28;20054;-65
2022/07/01 06:02:30;;;;;;;17.90;8.52;;;;;;;;;;4967525;28;20053;-65
2022/07/01 06:04:56;;;;;;;16.98;9.25;;;;;;;;;;4982024;28;20051;-65
2022/07/01 06:07:22;;;;;;;17.27;8.82;;;;;;;;;;4985942;28;20034;-65
2022/07/01 06:09:48;;;;;;;18.63;9.38;;;;;;;;;;4984949;28;20700;-65
2022/07/01 06:12:15;;;;;;;16.92;8.68;;;;;;;;;;4982943;28;20104;-65
2022/07/01 06:14:41;;;;;;;19.38;9.43;;;;;;;;;;4984877;28;20039;-64
2022/07/01 06:17:09;;;;;;;19.35;9.23;;;;;;;;;;4979962;28;20054;-65
2022/07/01 06:19:38;;;;;;;16.95;9.35;;;;;;;;;;4967671;28;20046;-65
2022/07/01 06:22:04;;;;;;;18.23;11.60;;;;;;;;;;4983041;28;20043;-65
2022/07/01 06:24:31;;;;;;;16.90;10.13;;;;;;;;;;4984254;28;20125;-65
2022/07/01 06:26:57;;;;;;;16.20;9.27;;;;;;;;;;4983784;28;20043;-65
2022/07/01 06:29:23;;;;;;;18.33;9.98;;;;;;;;;;4982995;28;20050;-65
2022/07/01 06:31:49;;;;;;;20.38;10.05;;;;;;;;;;4982283;28;21107;-65
2022/07/01 06:34:16;;;;;;;20.40;10.38;;;;;;;;;;4968158;28;20039;-65
2022/07/01 06:36:42;;;;;;;19.98;10.20;;;;;;;;;;4966273;28;20141;-65
2022/07/01 06:39:08;;;;;;;20.58;9.45;;;;;;;;;;4966647;28;20050;-65
2022/07/01 06:41:34;;;;;;;21.00;9.32;;;;;;;;;;4984489;28;20069;-65
2022/07/01 06:44:02;;;;;;;19.52;9.48;;;;;;;;;;4983196;28;20038;-65
2022/07/01 06:46:28;;;;;;;15.23;8.38;;;;;;;;;;4982328;28;20058;-65
2022/07/01 06:48:55;;;;;;;15.63;8.48;;;;;;;;;;4981924;28;20057;-65
2022/07/01 06:51:22;;;;;;;24.27;9.43;;;;;;;;;;4983282;28;20070;-65
2022/07/01 06:53:49;;;;;;;16.70;8.10;;;;;;;;;;4983365;28;20073;-65
2022/07/01 06:56:16;;;;;;;16.48;7.47;;;;;;;;;;4984718;28;20424;-65
2022/07/01 06:58:42;;;;;;;19.45;9.05;;;;;;;;;;4966807;28;20074;-65
2022/07/01 07:01:09;;;;;;;12.90;7.65;;;;;;;;;;4981340;28;20064;-65
2022/07/01 07:03:35;;;;;;;17.67;6.53;;;;;;;;;;4982849;28;20038;-65
2022/07/01 07:06:02;;;;;;;15.02;7.03;;;;;;;;;;4983497;28;20126;-65
2022/07/01 07:08:30;;;;;;;12.82;5.90;;;;;;;;;;4982097;28;20425;-65
2022/07/01 07:10:56;;;;;;;14.55;6.65;;;;;;;;;;4967249;28;20050;-65
2022/07/01 07:13:22;;;;;;;16.88;5.63;;;;;;;;;;4981702;28;20035;-65
2022/07/01 07:15:49;;;;;;;16.33;4.97;;;;;;;;;;4979372;28;20177;-65
2022/07/01 07:18:15;;;;;;;18.67;5.55;;;;;;;;;;4979747;28;20142;-65
2022/07/01 07:20:43;;;;;;;20.52;5.28;;;;;;;;;;4981723;28;20042;-65
2022/07/01 07:23:09;;;;;;;17.83;5.65;;;;;;;;;;4983164;28;20089;-65
2022/07/01 07:25:35;;;;;;;11.13;4.43;;;;;;;;;;4965805;28;20046;-64
2022/07/01 07:28:01;;;;;;;14.05;4.32;;;;;;;;;;4982086;28;20050;-65
2022/07/01 07:30:28;;;;;;;10.73;3.85;;;;;;;;;;4980136;28;20191;-65
2022/07/01 07:32:54;;;;;;;15.90;4.18;;;;;;;;;;4981768;28;20050;-65
2022/07/01 07:35:20;;;;;;;12.05;4.00;;;;;;;;;;4965456;28;20059;-65
2022/07/01 07:37:46;;;;;;;8.85;3.70;;;;;;;;;;4983819;28;20125;-65
2022/07/01 07:40:17;;;;;;;17.30;3.97;;;;;;;;;;4966548;28;20042;-65
2022/07/01 07:42:44;;;;;;;14.75;4.15;;;;;;;;;;4982828;28;20042;-65
2022/07/01 07:45:11;;;;;;;11.65;2.90;;;;;;;;;;4983433;28;20107;-65
2022/07/01 07:47:38;;;;;;;12.70;3.00;;;;;;;;;;4969716;28;20050;-65
2022/07/01 07:50:05;;;;;;;8.35;3.13;;;;;;;;;;4982456;28;20046;-65
2022/07/01 07:52:31;;;;;;;14.52;2.92;;;;;;;;;;4981073;28;20426;-65
2022/07/01 07:54:57;;;;;;;12.77;2.85;;;;;;;;;;4979818;28;20092;-65
2022/07/01 07:57:23;;;;;;;11.27;3.20;;;;;;;;;;4964411;28;20057;-65
2022/07/01 07:59:50;;;;;;;10.90;2.60;;;;;;;;;;4980600;28;20135;-64
2022/07/01 08:02:16;;;;;;;14.35;3.00;;;;;;;;;;4963556;28;20466;-64
2022/07/01 08:04:42;;;;;;;8.90;2.30;;;;;;;;;;4966009;28;20079;-65
2022/07/01 08:07:08;;;;;;;11.43;2.67;;;;;;;;;;4984447;28;20478;-65
2022/07/01 08:09:35;;;;;;;9.75;2.13;;;;;;;;;;4978548;28;20154;-65
2022/07/01 08:12:01;;;;;;;13.60;2.30;;;;;;;;;;4964326;28;20104;-65
2022/07/01 08:14:28;;;;;;;11.90;2.60;;;;;;;;;;4982226;28;20050;-65
2022/07/01 08:16:54;;;;;;;5.70;1.90;;;;;;;;;;4980713;28;20076;-65
2022/07/01 08:19:20;;;;;;;10.13;1.80;;;;;;;;;;4981714;28;20137;-65
2022/07/01 08:21:46;;;;;;;9.48;1.60;;;;;;;;;;4964910;28;20486;-65
2022/07/01 08:24:12;;;;;;;7.13;1.55;;;;;;;;;;4981905;28;20126;-65
2022/07/01 08:26:39;;;;;;;9.05;2.15;;;;;;;;;;4982911;28;20053;-64
2022/07/01 08:29:05;;;;;;;8.75;2.03;;;;;;;;;;4979820;28;20046;-65
2022/07/01 08:31:31;;;;;;;10.30;2.00;;;;;;;;;;4980608;28;21111;-65
2022/07/01 08:33:58;;;;;;;12.85;2.30;;;;;;;;;;4979076;28;20049;-65
2022/07/01 08:36:24;;;;;;;9.55;2.00;;;;;;;;;;4985808;28;20045;-65
2022/07/01 08:38:50;;;;;;;8.98;1.95;;;;;;;;;;4984678;28;20438;-63
2022/07/01 08:41:19;;;;;;;8.15;1.95;;;;;;;;;;4986276;28;20038;-64
2022/07/01 08:43:46;;;;;;;11.27;2.08;;;;;;;;;;4986529;28;20042;-64
2022/07/01 08:46:12;;;;;;;11.10;2.45;;;;;;;;;;4984622;28;20495;-63
2022/07/01 08:48:42;;;;;;;10.32;1.70;;;;;;;;;;4986126;28;20146;-63
2022/07/01 08:51:08;;;;;;;7.43;1.50;;;;;;;;;;4986389;28;20057;-63
2022/07/01 08:53:35;;;;;;;6.75;2.03;;;;;;;;;;4984986;28;20042;-63
2022/07/01 08:58:48;;;;;;;9.40;1.55;;;;;;;;;;4968094;28;20050;-64
2022/07/01 09:01:20;;;;;;;8.15;1.73;;;;;;;;;;4983112;28;20422;-63
2022/07/01 09:03:47;;;;;;;7.63;1.90;;;;;;;;;;4985820;28;20039;-64
2022/07/01 09:06:14;;;;;;;7.43;2.05;;;;;;;;;;4984675;28;20054;-65
2022/07/01 09:08:41;;;;;;;10.10;1.73;;;;;;;;;;4985874;28;20039;-65
2022/07/01 09:11:12;;;;;;;7.35;2.13;;;;;;;;;;4985629;28;20094;-65
2022/07/01 09:13:38;;;;;;;7.38;1.83;;;;;;;;;;4988601;28;20056;-64
2022/07/01 09:16:11;;;;;;;6.75;1.75;;;;;;;;;;4988814;28;20046;-65
2022/07/01 09:18:37;;;;;;;5.45;1.48;;;;;;;;;;4987865;28;20493;-64
2022/07/01 09:21:07;;;;;;;9.65;1.40;;;;;;;;;;4987910;28;20053;-65
2022/07/01 09:23:34;;;;;;;6.60;1.52;;;;;;;;;;4971878;28;20062;-65
2022/07/01 09:26:00;;;;;;;9.05;1.92;;;;;;;;;;4988687;28;20039;-64
2022/07/01 09:28:27;;;;;;;8.35;1.98;;;;;;;;;;4988032;28;20045;-65
2022/07/01 09:30:55;;;;;;;6.75;1.70;;;;;;;;;;4988846;28;20137;-64
2022/07/01 09:33:23;;;;;;;8.05;2.05;;;;;;;;;;4989203;28;20079;-65
2022/07/01 09:35:52;;;;;;;5.60;1.90;;;;;;;;;;4987695;28;20043;-64
2022/07/01 09:38:20;;;;;;;7.00;1.80;;;;;;;;;;4989199;28;20520;-65
2022/07/01 09:40:47;;;;;;;9.15;1.70;;;;;;;;;;4988374;28;20039;-64
2022/07/01 09:43:20;;;;;;;10.18;2.10;;;;;;;;;;4987877;28;20043;-64
2022/07/01 09:45:53;;;;;;;8.07;1.17;;;;;;;;;;4968358;28;20137;-64
2022/07/01 09:48:19;;;;;;;5.97;1.73;;;;;;;;;;4987709;28;20072;-64
2022/07/01 09:50:46;;;;;;;6.05;1.48;;;;;;;;;;4967824;28;20038;-64
2022/07/01 09:53:13;;;;;;;9.35;1.75;;;;;;;;;;4987794;28;20042;-64
2022/07/01 09:55:40;;;;;;;5.70;1.42;;;;;;;;;;4987575;28;20052;-64
2022/07/01 09:58:07;;;;;;;6.65;1.42;;;;;;;;;;4987698;28;20038;-64
2022/07/01 10:00:33;;;;;;;6.65;1.27;;;;;;;;;;4984996;28;20042;-64
2022/07/01 10:03:01;;;;;;;4.22;1.00;;;;;;;;;;4986773;28;20042;-64
2022/07/01 10:05:28;;;;;;;8.07;1.30;;;;;;;;;;4986496;28;20061;-64
2022/07/01 10:08:11;;;;;;;5.20;1.27;;;;;;;;;;4985343;28;20091;-65
2022/07/01 10:10:52;;;;;;;4.68;1.20;;;;;;;;;;4983637;28;20091;-65
2022/07/01 10:13:22;;;;;;;4.40;1.55;;;;;;;;;;4971562;28;20054;-66
2022/07/01 10:15:48;;;;;;;10.00;1.48;;;;;;;;;;4987402;28;20097;-65
2022/07/01 10:18:20;;;;;;;3.05;1.10;;;;;;;;;;4984072;28;20046;-65
2022/07/01 10:20:47;;;;;;;7.43;1.90;;;;;;;;;;4982979;28;20043;-65
2022/07/01 10:23:13;;;;;;;7.22;2.15;;;;;;;;;;4986996;28;20123;-65
2022/07/01 10:25:41;;;;;;;5.75;1.88;;;;;;;;;;4971375;28;20089;-65
2022/07/01 10:28:12;;;;;;;7.90;2.00;;;;;;;;;;4985855;28;20034;-64
2022/07/01 10:30:52;;;;;;;6.35;2.15;;;;;;;;;;4996189;28;20074;-65
2022/07/01 10:33:33;;;;;;;6.93;1.92;;;;;;;;;;4992628;28;20145;-64
2022/07/01 10:36:07;;;;;;;6.90;2.50;;;;;;;;;;4985507;28;20068;-64
2022/07/01 10:38:33;;;;;;;12.13;2.08;;;;;;;;;;4986977;28;20126;-64
2022/07/01 10:41:10;;;;;;;5.07;2.08;;;;;;;;;;4995006;28;20053;-64
2022/07/01 10:43:41;;;;;;;7.28;2.03;;;;;;;;;;4990002;28;20102;-64
2022/07/01 10:46:08;;;;;;;6.47;1.90;;;;;;;;;;4987206;28;20042;-65
2022/07/01 10:48:34;;;;;;;8.73;2.42;;;;;;;;;;4986907;28;20087;-64
2022/07/01 10:51:01;;;;;;;6.28;2.30;;;;;;;;;;4999254;28;20612;-65
2022/07/01 10:53:47;;;;;;;5.55;2.10;;;;;;;;;;5004940;28;20042;-64
2022/07/01 10:56:17;;;;;;;6.40;1.95;;;;;;;;;;4993226;28;20043;-64
2022/07/01 10:58:44;;;;;;;4.03;1.70;;;;;;;;;;4987504;28;20046;-65
2022/07/01 11:01:10;;;;;;;6.70;1.80;;;;;;;;;;4969474;28;20058;-65
2022/07/01 11:03:39;;;;;;;6.25;1.80;;;;;;;;;;4986309;28;20043;-64
2022/07/01 11:06:05;;;;;;;5.85;2.00;;;;;;;;;;4985753;28;20046;-64
2022/07/01 11:08:32;;;;;;;8.52;2.50;;;;;;;;;;4985753;28;20057;-64
2022/07/01 11:11:01;;;;;;;7.35;2.42;;;;;;;;;;4986506;28;20156;-65
2022/07/01 11:13:28;;;;;;;5.45;1.90;;;;;;;;;;4985498;28;20127;-65
2022/07/01 11:15:54;;;;;;;4.63;1.23;;;;;;;;;;4982769;28;20501;-64
2022/07/01 11:18:20;;;;;;;5.45;1.02;;;;;;;;;;4968040;28;22200;-64
2022/07/01 11:20:47;;;;;;;4.90;1.02;;;;;;;;;;4965849;28;20538;-64
2022/07/01 11:23:13;;;;;;;5.45;1.23;;;;;;;;;;4982040;28;20042;-65
2022/07/01 11:25:41;;;;;;;3.72;1.10;;;;;;;;;;4983190;28;20082;-65
2022/07/01 11:28:07;;;;;;;7.32;1.27;;;;;;;;;;4983740;28;20126;-65
2022/07/01 11:30:33;;;;;;;6.07;1.20;;;;;;;;;;4967874;28;20479;-65
2022/07/01 11:32:59;;;;;;;6.88;1.25;;;;;;;;;;4981627;28;20128;-65
2022/07/01 11:41:01;;;;;;;4.88;0.80;;;;;;;;;;4971982;28;20083;-64
2022/07/01 11:43:28;;;;;;;5.55;1.23;;;;;;;;;;4982179;28;20060;-65
2022/07/01 11:45:55;;;;;;;6.22;1.73;;;;;;;;;;4992078;28;20066;-64
2022/07/01 11:48:29;;;;;;;5.43;1.10;;;;;;;;;;4992325;28;20069;-65
2022/07/01 11:50:55;;;;;;;5.38;1.08;;;;;;;;;;4985233;28;20754;-65
2022/07/01 11:53:21;;;;;;;11.27;1.38;;;;;;;;;;5013656;28;20125;-64
2022/07/01 11:55:48;;;;;;;6.50;1.35;;;;;;;;;;5008575;28;20061;-64
2022/07/01 11:58:14;;;;;;;6.47;1.63;;;;;;;;;;5028186;28;20223;-64
2022/07/01 12:00:40;;;;;;;5.53;1.30;;;;;;;;;;5027419;28;20486;-64
2022/07/01 12:03:07;;;;;;;6.00;1.40;;;;;;;;;;5027446;28;20051;-64
2022/07/01 12:05:35;;;;;;;7.35;1.27;;;;;;;;;;5004521;28;20090;-64
2022/07/01 12:08:01;;;;;;;5.57;1.27;;;;;;;;;;5032193;28;20040;-64
2022/07/01 12:10:28;;;;;;;5.57;1.50;;;;;;;;;;5025104;28;20061;-64
2022/07/01 12:12:54;;;;;;;7.80;1.55;;;;;;;;;;5000236;28;20405;-64
2022/07/01 12:15:21;;;;;;;5.28;1.25;;;;;;;;;;4990060;28;20058;-64
2022/07/01 12:17:47;;;;;;;5.13;1.27;;;;;;;;;;4985604;28;20760;-64
2022/07/01 12:20:14;;;;;;;6.07;1.05;;;;;;;;;;4984955;28;21196;-64
2022/07/01 12:22:40;;;;;;;5.28;0.80;;;;;;;;;;4987749;28;20043;-64
2022/07/01 12:25:08;;;;;;;2.10;0.60;;;;;;;;;;5008562;28;20111;-65
2022/07/01 12:27:35;;;;;;;5.65;1.20;;;;;;;;;;4990952;28;20132;-64
2022/07/01 12:30:03;;;;;;;4.45;0.82;;;;;;;;;;4990714;28;20130;-64
2022/07/01 12:32:31;;;;;;;4.15;0.80;;;;;;;;;;4988157;28;20129;-64
2022/07/01 12:35:04;;;;;;;4.85;1.05;;;;;;;;;;4986040;28;20057;-65
2022/07/01 12:37:32;;;;;;;4.25;0.90;;;;;;;;;;4986443;28;20708;-64
2022/07/01 12:40:01;;;;;;;5.88;1.30;;;;;;;;;;4993852;28;20623;-65
2022/07/01 12:42:27;;;;;;;4.82;0.80;;;;;;;;;;4990787;28;20509;-65
2022/07/01 12:44:54;;;;;;;3.97;1.00;;;;;;;;;;4991326;28;20478;-65
2022/07/01 12:47:21;;;;;;;7.60;0.82;;;;;;;;;;5010890;28;20360;-64
2022/07/01 12:49:47;;;;;;;6.47;1.08;;;;;;;;;;5004694;28;21812;-65
2022/07/01 12:52:25;;;;;;;4.15;0.90;;;;;;;;;;5000855;28;20567;-65
2022/07/01 12:54:51;;;;;;;6.82;1.10;;;;;;;;;;5004958;28;20447;-65
2022/07/01 12:57:17;;;;;;;8.38;1.45;;;;;;;;;;5000596;28;20478;-65
2022/07/01 12:59:43;;;;;;;3.33;0.73;;;;;;;;;;5005985;28;20417;-65
2022/07/01 13:02:09;;;;;;;5.38;1.13;;;;;;;;;;5040945;28;20038;-64
2022/07/01 13:04:36;;;;;;;6.72;1.40;;;;;;;;;;5014938;28;20036;-65
2022/07/01 13:07:02;;;;;;;3.78;0.95;;;;;;;;;;5035982;28;20046;-65
2022/07/01 13:09:28;;;;;;;4.30;1.00;;;;;;;;;;5007595;28;20050;-65
2022/07/01 13:11:54;;;;;;;9.48;1.95;;;;;;;;;;5054995;28;20056;-65
2022/07/01 13:14:20;;;;;;;7.07;1.55;;;;;;;;;;5034548;28;20041;-65
2022/07/01 13:16:47;;;;;;;5.55;1.40;;;;;;;;;;4978031;28;20100;-65
2022/07/01 13:19:13;;;;;;;7.55;1.88;;;;;;;;;;4982628;28;20073;-65
2022/07/01 13:21:39;;;;;;;5.90;1.48;;;;;;;;;;4988435;28;20038;-65
2022/07/01 13:24:05;;;;;;;6.75;1.52;;;;;;;;;;4979440;28;20137;-65
2022/07/01 13:26:32;;;;;;;6.53;1.58;;;;;;;;;;4984950;28;20480;-65
2022/07/01 13:28:58;;;;;;;7.57;1.88;;;;;;;;;;4984554;28;20042;-65
2022/07/01 13:31:24;;;;;;;11.15;1.48;;;;;;;;;;4970500;28;20343;-65
2022/07/01 13:33:50;;;;;;;9.10;1.50;;;;;;;;;;4975856;28;20042;-65
2022/07/01 13:36:16;;;;;;;8.52;1.75;;;;;;;;;;4988182;28;20147;-65
2022/07/01 13:38:43;;;;;;;6.68;1.58;;;;;;;;;;4993258;28;20045;-65
2022/07/01 13:41:09;;;;;;;6.65;1.40;;;;;;;;;;4987150;28;20645;-65
2022/07/01 13:43:36;;;;;;;8.38;1.92;;;;;;;;;;4984982;28;20054;-65
2022/07/01 13:46:03;;;;;;;10.60;1.20;;;;;;;;;;4994000;28;21950;-65
2022/07/01 13:48:29;;;;;;;6.13;1.00;;;;;;;;;;4989108;28;20118;-65
2022/07/01 13:50:55;;;;;;;6.70;1.80;;;;;;;;;;4983673;28;20210;-65
2022/07/01 13:53:21;;;;;;;5.40;1.48;;;;;;;;;;4986556;28;20190;-65
2022/07/01 13:55:47;;;;;;;11.98;1.65;;;;;;;;;;4986183;28;20129;-65
2022/07/01 13:58:15;;;;;;;10.63;1.60;;;;;;;;;;5002237;28;20049;-65
2022/07/01 14:00:41;;;;;;;7.88;1.10;;;;;;;;;;4997620;28;20046;-65
2022/07/01 14:03:10;;;;;;;6.45;1.08;;;;;;;;;;4999781;28;20082;-65
2022/07/01 14:05:36;;;;;;;6.65;1.25;;;;;;;;;;5002476;28;20113;-65
2022/07/01 14:08:03;;;;;;;6.25;1.20;;;;;;;;;;5001311;28;20044;-65
2022/07/01 14:10:29;;;;;;;7.65;1.08;;;;;;;;;;5000320;28;20088;-65
2022/07/01 14:12:56;;;;;;;10.88;1.75;;;;;;;;;;4997722;28;20057;-65
2022/07/01 14:15:22;;;;;;;8.18;1.38;;;;;;;;;;5001830;28;20042;-65
2022/07/01 14:17:48;;;;;;;6.25;1.58;;;;;;;;;;4998350;28;20053;-65
2022/07/01 14:20:15;;;;;;;7.75;1.65;;;;;;;;;;5000876;28;20034;-65
2022/07/01 14:22:42;;;;;;;11.55;2.15;;;;;;;;;;4973819;28;20406;-64
2022/07/01 14:25:08;;;;;;;7.18;1.48;;;;;;;;;;4995209;28;20046;-65
2022/07/01 14:27:34;;;;;;;6.07;1.20;;;;;;;;;;4991425;28;20034;-65
2022/07/01 14:30:00;;;;;;;8.07;1.73;;;;;;;;;;4996009;28;20038;-64
2022/07/01 14:32:27;;;;;;;5.72;1.27;;;;;;;;;;4999266;28;20042;-64
2022/07/01 14:34:54;;;;;;;6.75;1.20;;;;;;;;;;4986804;28;20054;-64
2022/07/01 14:37:21;;;;;;;7.75;1.63;;;;;;;;;;4989606;28;20049;-64
2022/07/01 14:39:50;;;;;;;5.30;1.33;;;;;;;;;;4994380;28;20065;-64
2022/07/01 14:42:17;;;;;;;5.05;0.90;;;;;;;;;;4996197;28;20043;-65
2022/07/01 14:44:43;;;;;;;6.75;1.20;;;;;;;;;;4983424;28;20054;-65
2022/07/01 14:47:09;;;;;;;5.47;1.02;;;;;;;;;;4983090;28;20054;-64
2022/07/01 14:49:35;;;;;;;4.82;1.00;;;;;;;;;;4987721;28;20106;-64
2022/07/01 14:52:02;;;;;;;6.47;1.20;;;;;;;;;;4983718;28;20470;-64
2022/07/01 14:54:29;;;;;;;6.60;0.93;;;;;;;;;;4984576;28;20133;-64
2022/07/01 14:56:55;;;;;;;5.47;1.33;;;;;;;;;;4975676;28;20034;-64
2022/07/01 14:59:22;;;;;;;4.75;1.15;;;;;;;;;;4992875;28;20042;-64